Time;durP1;ratioP1;P1;durP2;ratioP2;P2;SDS_P1;SDS_P2;PMS_P1;PMS_P2;Temp;Humidity;BMP_temperature;BMP_pressure;BME280_temperature;BME280_humidity;BME280_pressure;Samples;Min_cycle;Max_cycle;Signal;HPM_P1;HPM_P2
2023/08/22 00:01:07;;;;;;;6.03;3.43;;;;;;;;;;5035056;28;20226;-78
2023/08/22 00:03:33;;;;;;;5.33;3.00;;;;;;;;;;5033844;28;20206;-78
2023/08/22 00:05:59;;;;;;;6.13;3.23;;;;;;;;;;5034818;28;20176;-78
2023/08/22 00:08:25;;;;;;;6.80;3.28;;;;;;;;;;5050321;28;20188;-78
2023/08/22 00:10:51;;;;;;;6.23;3.20;;;;;;;;;;5017161;28;20220;-78
2023/08/22 00:13:17;;;;;;;7.23;3.07;;;;;;;;;;5017283;28;20251;-78
2023/08/22 00:15:43;;;;;;;5.37;2.90;;;;;;;;;;5034767;28;20180;-78
2023/08/22 00:18:09;;;;;;;3.83;2.80;;;;;;;;;;5017235;28;20187;-80
2023/08/22 00:20:36;;;;;;;6.03;2.87;;;;;;;;;;5017242;28;20188;-80
2023/08/22 00:23:03;;;;;;;5.60;3.07;;;;;;;;;;5050162;28;20180;-80
2023/08/22 00:25:29;;;;;;;7.70;3.10;;;;;;;;;;5034635;28;20180;-80
2023/08/22 00:27:55;;;;;;;4.43;3.10;;;;;;;;;;5050347;28;20176;-80
2023/08/22 00:30:21;;;;;;;6.13;3.03;;;;;;;;;;5033469;28;20215;-80
2023/08/22 00:32:47;;;;;;;6.00;2.90;;;;;;;;;;5017114;28;20184;-80
2023/08/22 00:35:14;;;;;;;4.83;2.77;;;;;;;;;;5034440;28;20180;-77
2023/08/22 00:37:40;;;;;;;5.97;2.80;;;;;;;;;;5050207;28;20184;-77
2023/08/22 00:40:06;;;;;;;4.77;2.73;;;;;;;;;;5033407;28;20237;-77
2023/08/22 00:42:33;;;;;;;5.80;2.77;;;;;;;;;;5016809;28;20181;-77
2023/08/22 00:44:59;;;;;;;4.53;2.60;;;;;;;;;;5016872;28;20185;-77
2023/08/22 00:47:25;;;;;;;6.43;3.13;;;;;;;;;;5016741;28;20184;-77
2023/08/22 00:49:51;;;;;;;6.13;2.90;;;;;;;;;;5033066;28;20295;-77
2023/08/22 00:52:17;;;;;;;6.43;3.00;;;;;;;;;;5016979;28;20279;-83
2023/08/22 00:54:46;;;;;;;4.53;2.90;;;;;;;;;;5033186;28;20196;-83
2023/08/22 00:57:12;;;;;;;6.63;2.90;;;;;;;;;;5033129;28;20169;-82
2023/08/22 00:59:38;;;;;;;5.10;2.90;;;;;;;;;;5049567;28;20271;-83
2023/08/22 01:02:07;;;;;;;7.17;2.80;;;;;;;;;;5033071;28;20259;-83
2023/08/22 01:04:33;;;;;;;6.97;2.90;;;;;;;;;;5033842;28;20183;-83
2023/08/22 01:07:07;;;;;;;8.47;3.07;;;;;;;;;;5033015;28;20208;-83
2023/08/22 01:09:38;;;;;;;7.53;2.80;;;;;;;;;;5049452;28;20208;-80
2023/08/22 01:12:13;;;;;;;6.20;3.17;;;;;;;;;;5049363;28;20227;-80
2023/08/22 01:14:42;;;;;;;6.20;3.27;;;;;;;;;;5049404;28;20184;-80
2023/08/22 01:17:08;;;;;;;6.20;2.83;;;;;;;;;;5033829;28;20176;-79
2023/08/22 01:19:34;;;;;;;7.57;3.38;;;;;;;;;;5049090;28;20457;-80
2023/08/22 01:22:00;;;;;;;5.73;2.90;;;;;;;;;;5049362;28;20185;-81
2023/08/22 01:24:26;;;;;;;3.07;2.63;;;;;;;;;;5032998;28;20188;-77
2023/08/22 01:26:52;;;;;;;5.27;3.00;;;;;;;;;;5032811;28;20187;-77
2023/08/22 01:29:27;;;;;;;4.93;2.70;;;;;;;;;;5016164;28;20288;-78
2023/08/22 01:31:53;;;;;;;5.20;3.23;;;;;;;;;;5049254;28;20263;-78
2023/08/22 01:34:39;;;;;;;5.10;3.05;;;;;;;;;;5051138;28;20467;-78
2023/08/22 01:37:08;;;;;;;5.47;3.27;;;;;;;;;;5053272;28;20176;-78
2023/08/22 01:39:36;;;;;;;4.70;2.93;;;;;;;;;;5037550;28;20177;-77
2023/08/22 01:42:02;;;;;;;5.40;2.73;;;;;;;;;;5053276;28;20247;-80
2023/08/22 01:44:28;;;;;;;4.77;2.73;;;;;;;;;;5037619;28;20192;-80
2023/08/22 01:46:55;;;;;;;7.47;2.70;;;;;;;;;;5036583;28;20196;-80
2023/08/22 01:49:21;;;;;;;5.57;2.67;;;;;;;;;;5052964;28;20208;-80
2023/08/22 01:51:47;;;;;;;6.70;2.53;;;;;;;;;;5053055;28;20219;-83
2023/08/22 01:54:13;;;;;;;4.77;2.37;;;;;;;;;;5037325;28;20188;-82
2023/08/22 01:56:39;;;;;;;7.03;2.77;;;;;;;;;;5052626;28;20184;-83
2023/08/22 01:59:05;;;;;;;6.87;2.83;;;;;;;;;;5037644;28;20260;-82
2023/08/22 02:01:31;;;;;;;3.90;2.50;;;;;;;;;;5053147;28;20188;-83
2023/08/22 02:04:03;;;;;;;4.87;2.60;;;;;;;;;;5052908;28;20185;-83
2023/08/22 02:06:29;;;;;;;6.60;2.70;;;;;;;;;;5020511;28;20267;-83
2023/08/22 02:08:55;;;;;;;5.30;2.83;;;;;;;;;;5035961;28;20252;-83
2023/08/22 02:11:21;;;;;;;7.17;2.77;;;;;;;;;;5036061;28;20639;-83
2023/08/22 02:13:47;;;;;;;6.60;2.80;;;;;;;;;;5052527;28;20227;-83
2023/08/22 02:16:13;;;;;;;4.87;2.87;;;;;;;;;;5019636;28;20188;-82
2023/08/22 02:18:39;;;;;;;4.00;2.57;;;;;;;;;;5052469;28;20181;-82
2023/08/22 02:21:05;;;;;;;4.97;2.53;;;;;;;;;;5019281;28;20184;-82
2023/08/22 02:23:32;;;;;;;4.73;2.50;;;;;;;;;;5036792;28;20184;-82
2023/08/22 02:25:58;;;;;;;4.10;2.53;;;;;;;;;;5019779;28;20184;-83
2023/08/22 02:28:24;;;;;;;4.63;2.87;;;;;;;;;;5052397;28;20180;-83
2023/08/22 02:30:57;;;;;;;5.53;2.60;;;;;;;;;;5052205;28;20299;-83
2023/08/22 02:33:23;;;;;;;4.43;2.70;;;;;;;;;;5052222;28;20177;-77
2023/08/22 02:35:49;;;;;;;3.97;2.57;;;;;;;;;;5035684;28;20181;-77
2023/08/22 02:38:16;;;;;;;3.90;2.67;;;;;;;;;;5051907;28;20173;-77
2023/08/22 02:40:42;;;;;;;6.20;2.70;;;;;;;;;;5052064;28;20177;-77
2023/08/22 02:43:08;;;;;;;5.40;2.40;;;;;;;;;;5035582;28;20201;-77
2023/08/22 02:45:35;;;;;;;5.70;2.70;;;;;;;;;;5018017;28;20208;-77
2023/08/22 02:48:01;;;;;;;4.63;2.67;;;;;;;;;;5035513;28;20187;-77
2023/08/22 02:50:26;;;;;;;3.67;2.50;;;;;;;;;;5036115;28;20192;-77
2023/08/22 02:52:53;;;;;;;5.30;2.60;;;;;;;;;;5018752;28;20322;-77
2023/08/22 02:55:19;;;;;;;4.33;2.70;;;;;;;;;;5051727;28;20212;-77
2023/08/22 02:57:45;;;;;;;3.70;2.67;;;;;;;;;;5052086;28;20177;-80
2023/08/22 03:00:12;;;;;;;5.93;2.87;;;;;;;;;;5051767;28;20222;-79
2023/08/22 03:02:39;;;;;;;8.20;3.07;;;;;;;;;;5036250;28;20180;-80
2023/08/22 03:05:08;;;;;;;4.40;2.70;;;;;;;;;;5035268;28;20176;-80
2023/08/22 03:07:34;;;;;;;4.90;2.57;;;;;;;;;;5051655;28;20176;-80
2023/08/22 03:10:00;;;;;;;6.37;2.87;;;;;;;;;;5034917;28;20216;-80
2023/08/22 03:12:26;;;;;;;4.50;2.70;;;;;;;;;;5018443;28;20232;-80
2023/08/22 03:14:52;;;;;;;7.17;2.47;;;;;;;;;;5036049;28;20192;-80
2023/08/22 03:17:18;;;;;;;6.27;3.30;;;;;;;;;;5018494;28;20183;-80
2023/08/22 03:19:44;;;;;;;6.33;2.90;;;;;;;;;;5018121;28;20279;-80
2023/08/22 03:22:10;;;;;;;5.90;3.20;;;;;;;;;;5018739;28;20212;-83
2023/08/22 03:24:36;;;;;;;5.23;2.87;;;;;;;;;;5034866;28;20177;-83
2023/08/22 03:27:02;;;;;;;6.00;2.97;;;;;;;;;;5018169;28;20184;-82
2023/08/22 03:29:28;;;;;;;4.40;2.93;;;;;;;;;;5035512;28;20208;-83
2023/08/22 03:31:56;;;;;;;6.97;2.83;;;;;;;;;;5051282;28;20180;-82
2023/08/22 03:34:22;;;;;;;4.63;3.10;;;;;;;;;;5035626;28;20267;-83
2023/08/22 03:36:48;;;;;;;8.10;3.40;;;;;;;;;;5034764;28;20263;-83
2023/08/22 03:39:15;;;;;;;4.47;2.83;;;;;;;;;;5051135;28;20176;-77
2023/08/22 03:41:41;;;;;;;4.23;2.53;;;;;;;;;;5050984;28;20263;-77
2023/08/22 03:44:07;;;;;;;5.73;2.97;;;;;;;;;;5017873;28;20212;-77
2023/08/22 03:46:33;;;;;;;6.70;3.80;;;;;;;;;;5017860;28;20185;-77
2023/08/22 03:48:59;;;;;;;4.13;3.10;;;;;;;;;;5017680;28;20193;-77
2023/08/22 03:51:25;;;;;;;8.13;2.70;;;;;;;;;;5017492;28;20291;-77
2023/08/22 03:53:51;;;;;;;6.67;3.20;;;;;;;;;;5017873;28;20591;-77
2023/08/22 03:56:17;;;;;;;5.37;3.10;;;;;;;;;;5050149;28;20180;-77
2023/08/22 03:58:43;;;;;;;5.03;2.70;;;;;;;;;;5050434;28;20267;-77
2023/08/22 04:01:09;;;;;;;7.83;3.30;;;;;;;;;;5050385;28;20248;-77
2023/08/22 04:03:35;;;;;;;3.23;2.80;;;;;;;;;;5033837;28;20184;-77
2023/08/22 04:06:03;;;;;;;5.20;3.10;;;;;;;;;;5017514;28;20188;-77
2023/08/22 04:08:30;;;;;;;6.40;3.00;;;;;;;;;;5017919;28;20208;-77
2023/08/22 04:10:56;;;;;;;5.00;2.90;;;;;;;;;;5050179;28;20208;-77
2023/08/22 04:13:22;;;;;;;5.80;3.00;;;;;;;;;;5050096;28;20224;-77
2023/08/22 04:15:49;;;;;;;3.80;3.13;;;;;;;;;;5017172;28;20276;-77
2023/08/22 04:18:15;;;;;;;5.60;3.17;;;;;;;;;;5017104;28;20206;-77
2023/08/22 04:20:43;;;;;;;4.50;3.07;;;;;;;;;;5050211;28;20180;-77
2023/08/22 04:23:09;;;;;;;4.43;3.23;;;;;;;;;;5017384;28;20185;-77
2023/08/22 04:25:35;;;;;;;5.57;3.30;;;;;;;;;;5016990;28;20196;-77
2023/08/22 04:28:01;;;;;;;6.77;3.60;;;;;;;;;;5017325;28;20291;-82
2023/08/22 04:30:27;;;;;;;6.93;3.30;;;;;;;;;;5050006;28;20288;-83
2023/08/22 04:32:53;;;;;;;5.00;3.20;;;;;;;;;;5016979;28;20185;-82
2023/08/22 04:35:19;;;;;;;4.87;3.33;;;;;;;;;;5050150;28;20172;-83
2023/08/22 04:37:45;;;;;;;5.37;3.40;;;;;;;;;;5050114;28;20179;-83
2023/08/22 04:40:11;;;;;;;4.93;3.40;;;;;;;;;;5016745;28;20223;-83
2023/08/22 04:42:37;;;;;;;5.27;3.30;;;;;;;;;;5034289;28;20173;-81
2023/08/22 04:45:03;;;;;;;6.30;3.77;;;;;;;;;;5016769;28;20181;-83
2023/08/22 04:47:29;;;;;;;7.40;3.50;;;;;;;;;;5016797;28;20199;-82
2023/08/22 04:49:55;;;;;;;5.77;3.60;;;;;;;;;;5033921;28;20212;-83
2023/08/22 04:52:21;;;;;;;7.10;3.60;;;;;;;;;;5016612;28;20211;-83
2023/08/22 04:54:47;;;;;;;5.80;3.90;;;;;;;;;;5016611;28;20177;-82
2023/08/22 04:57:13;;;;;;;5.83;3.20;;;;;;;;;;5049533;28;20199;-82
2023/08/22 04:59:39;;;;;;;6.67;3.67;;;;;;;;;;5049483;28;20177;-82
2023/08/22 05:02:05;;;;;;;7.37;3.67;;;;;;;;;;5049526;28;20184;-77
2023/08/22 05:04:31;;;;;;;5.33;4.03;;;;;;;;;;5016521;28;20247;-77
2023/08/22 05:06:57;;;;;;;5.63;3.53;;;;;;;;;;5032918;28;20256;-77
2023/08/22 05:09:23;;;;;;;5.00;3.60;;;;;;;;;;5015767;28;20220;-77
2023/08/22 05:11:50;;;;;;;5.77;3.23;;;;;;;;;;5016234;28;20188;-77
2023/08/22 05:14:16;;;;;;;6.93;3.77;;;;;;;;;;5049430;28;20183;-78
2023/08/22 05:16:43;;;;;;;5.83;4.10;;;;;;;;;;5033840;28;20176;-77
2023/08/22 05:19:09;;;;;;;5.13;3.13;;;;;;;;;;5032810;28;20224;-82
2023/08/22 05:21:35;;;;;;;5.70;4.03;;;;;;;;;;5033897;28;20184;-80
2023/08/22 05:24:01;;;;;;;4.63;3.67;;;;;;;;;;5032891;28;20177;-80
2023/08/22 05:26:27;;;;;;;8.67;4.00;;;;;;;;;;5016201;28;20219;-80
2023/08/22 05:28:53;;;;;;;5.07;3.60;;;;;;;;;;5033698;28;20222;-79
2023/08/22 05:31:22;;;;;;;7.82;4.35;;;;;;;;;;5032326;28;20517;-77
2023/08/22 05:33:49;;;;;;;6.93;4.50;;;;;;;;;;5016230;28;20180;-77
2023/08/22 05:36:15;;;;;;;8.37;4.00;;;;;;;;;;5016497;28;20192;-82
2023/08/22 05:38:41;;;;;;;5.07;4.27;;;;;;;;;;5016395;28;20181;-83
2023/08/22 05:41:07;;;;;;;6.70;4.47;;;;;;;;;;5016241;28;20216;-82
2023/08/22 05:43:33;;;;;;;5.83;3.87;;;;;;;;;;5033602;28;20231;-83
2023/08/22 05:46:00;;;;;;;6.87;4.10;;;;;;;;;;5016151;28;20188;-83
2023/08/22 05:48:26;;;;;;;8.27;4.07;;;;;;;;;;5049144;28;20188;-82
2023/08/22 05:50:52;;;;;;;7.37;4.40;;;;;;;;;;5016083;28;20208;-83
2023/08/22 05:53:18;;;;;;;6.83;4.37;;;;;;;;;;5015856;28;20181;-77
2023/08/22 05:55:44;;;;;;;10.43;5.50;;;;;;;;;;5016157;28;20180;-77
2023/08/22 05:58:10;;;;;;;11.70;5.20;;;;;;;;;;5048992;28;20172;-77
2023/08/22 06:00:36;;;;;;;6.67;5.40;;;;;;;;;;5033480;28;20216;-77
2023/08/22 06:03:02;;;;;;;10.63;6.10;;;;;;;;;;5033432;28;20279;-78
2023/08/22 06:05:28;;;;;;;10.67;6.00;;;;;;;;;;5032375;28;20207;-78
2023/08/22 06:07:55;;;;;;;9.37;6.30;;;;;;;;;;5048786;28;20180;-78
2023/08/22 06:10:23;;;;;;;10.50;7.50;;;;;;;;;;5032244;28;20236;-77
2023/08/22 06:12:49;;;;;;;14.68;7.65;;;;;;;;;;5015623;28;20444;-78
2023/08/22 06:15:15;;;;;;;12.40;8.70;;;;;;;;;;5048747;28;20184;-78
2023/08/22 06:17:41;;;;;;;9.73;8.13;;;;;;;;;;5033135;28;20204;-78
2023/08/22 06:20:08;;;;;;;13.57;8.80;;;;;;;;;;5017373;28;20235;-78
2023/08/22 06:22:34;;;;;;;11.03;8.83;;;;;;;;;;5019138;28;20183;-78
2023/08/22 06:25:00;;;;;;;17.13;9.67;;;;;;;;;;5052441;28;20185;-83
2023/08/22 06:27:26;;;;;;;12.70;8.80;;;;;;;;;;5019398;28;20237;-82
2023/08/22 06:29:52;;;;;;;12.17;8.03;;;;;;;;;;5019009;28;20208;-82
2023/08/22 06:32:21;;;;;;;12.03;8.07;;;;;;;;;;5019374;28;20188;-77
2023/08/22 06:34:47;;;;;;;14.83;8.53;;;;;;;;;;5052203;28;20196;-78
2023/08/22 06:37:13;;;;;;;14.00;7.60;;;;;;;;;;5036585;28;20179;-78
2023/08/22 06:39:39;;;;;;;14.70;7.43;;;;;;;;;;5052143;28;20267;-78
2023/08/22 06:42:05;;;;;;;11.13;7.13;;;;;;;;;;5019213;28;20189;-78
2023/08/22 06:44:31;;;;;;;12.73;7.70;;;;;;;;;;5018981;28;20276;-78
2023/08/22 06:46:57;;;;;;;8.77;6.53;;;;;;;;;;5052133;28;20283;-78
2023/08/22 06:49:23;;;;;;;6.57;5.17;;;;;;;;;;5051811;28;20184;-78
2023/08/22 06:51:49;;;;;;;7.63;5.07;;;;;;;;;;5018796;28;20181;-78
2023/08/22 06:54:15;;;;;;;9.03;5.27;;;;;;;;;;5035319;28;20264;-77
2023/08/22 06:56:41;;;;;;;9.20;6.03;;;;;;;;;;5036354;28;20224;-78
2023/08/22 06:59:09;;;;;;;6.80;5.20;;;;;;;;;;5051915;28;20192;-82
2023/08/22 07:01:35;;;;;;;11.13;5.77;;;;;;;;;;5019098;28;20203;-80
2023/08/22 07:04:01;;;;;;;7.83;5.03;;;;;;;;;;5018777;28;20185;-80
2023/08/22 07:06:27;;;;;;;9.87;5.00;;;;;;;;;;5036235;28;20184;-80
2023/08/22 07:08:53;;;;;;;6.97;4.47;;;;;;;;;;5018486;28;20204;-80
2023/08/22 07:11:19;;;;;;;7.17;4.80;;;;;;;;;;5051406;28;20227;-80
2023/08/22 07:13:45;;;;;;;6.63;4.60;;;;;;;;;;5018655;28;20232;-80
2023/08/22 07:16:12;;;;;;;8.80;5.20;;;;;;;;;;5018685;28;20235;-78
2023/08/22 07:18:38;;;;;;;7.97;5.10;;;;;;;;;;5051140;28;20177;-78
2023/08/22 07:21:04;;;;;;;9.43;5.50;;;;;;;;;;5035806;28;20177;-78
2023/08/22 07:23:30;;;;;;;8.73;5.30;;;;;;;;;;5018082;28;20184;-78
2023/08/22 07:28:28;;;;;;;8.87;5.83;;;;;;;;;;5014188;28;20241;-77
2023/08/22 07:30:54;;;;;;;6.70;4.40;;;;;;;;;;4997982;28;20332;-77
2023/08/22 07:33:20;;;;;;;7.07;4.40;;;;;;;;;;4998386;28;20224;-80
2023/08/22 07:35:46;;;;;;;6.80;3.70;;;;;;;;;;5015813;28;20178;-80
2023/08/22 07:38:13;;;;;;;7.13;3.70;;;;;;;;;;5014554;28;20177;-80
2023/08/22 07:40:40;;;;;;;6.87;3.50;;;;;;;;;;5014632;28;20180;-80
2023/08/22 07:43:06;;;;;;;8.50;4.20;;;;;;;;;;5014394;28;20226;-80
2023/08/22 07:45:32;;;;;;;11.80;4.60;;;;;;;;;;4998263;28;20212;-80
2023/08/22 07:47:59;;;;;;;6.97;4.30;;;;;;;;;;5015518;28;20178;-78
2023/08/22 07:50:25;;;;;;;8.67;4.70;;;;;;;;;;5014365;28;20240;-78
2023/08/22 07:52:51;;;;;;;6.97;4.20;;;;;;;;;;4997559;28;20427;-78
2023/08/22 07:55:17;;;;;;;6.60;4.55;;;;;;;;;;5014309;28;20278;-78
2023/08/22 07:57:43;;;;;;;8.82;4.82;;;;;;;;;;4997920;28;20204;-78
2023/08/22 08:00:11;;;;;;;9.17;4.47;;;;;;;;;;5014418;28;20177;-78
2023/08/22 08:02:37;;;;;;;7.18;4.10;;;;;;;;;;5014238;28;20197;-78
2023/08/22 08:05:03;;;;;;;5.97;3.63;;;;;;;;;;4997872;28;20197;-81
2023/08/22 08:07:29;;;;;;;8.80;3.40;;;;;;;;;;4997793;28;20415;-80
2023/08/22 08:09:55;;;;;;;6.82;3.00;;;;;;;;;;5013087;28;20558;-80
2023/08/22 08:12:21;;;;;;;4.97;2.92;;;;;;;;;;5013116;28;20407;-83
2023/08/22 08:14:47;;;;;;;6.40;3.03;;;;;;;;;;4996999;28;20490;-83
2023/08/22 08:17:16;;;;;;;6.15;2.80;;;;;;;;;;4997485;28;20425;-83
2023/08/22 08:19:42;;;;;;;5.18;2.53;;;;;;;;;;4997808;28;20423;-83
2023/08/22 08:22:08;;;;;;;6.82;2.70;;;;;;;;;;4996773;28;20412;-80
2023/08/22 08:24:35;;;;;;;3.83;2.30;;;;;;;;;;5013965;28;20205;-80
2023/08/22 08:27:01;;;;;;;5.30;2.47;;;;;;;;;;5013688;28;20229;-80
2023/08/22 08:29:27;;;;;;;6.00;2.90;;;;;;;;;;5013551;28;20414;-81
2023/08/22 08:31:55;;;;;;;5.10;2.42;;;;;;;;;;4997373;28;20418;-80
2023/08/22 08:34:21;;;;;;;5.63;2.50;;;;;;;;;;5013468;28;20260;-81
2023/08/22 08:36:47;;;;;;;4.53;2.45;;;;;;;;;;5013746;28;20181;-80
2023/08/22 08:39:13;;;;;;;4.80;2.60;;;;;;;;;;5013618;28;20204;-84
2023/08/22 08:41:43;;;;;;;3.97;2.40;;;;;;;;;;4997114;28;20189;-78
2023/08/22 08:44:11;;;;;;;5.25;2.90;;;;;;;;;;5012427;28;20181;-77
2023/08/22 08:46:37;;;;;;;6.20;3.20;;;;;;;;;;5013469;28;20177;-77
2023/08/22 08:49:03;;;;;;;4.78;2.97;;;;;;;;;;4997089;28;20208;-77
2023/08/22 08:51:30;;;;;;;5.95;2.80;;;;;;;;;;5013270;28;20208;-78
2023/08/22 08:53:56;;;;;;;4.22;1.90;;;;;;;;;;4996887;28;20184;-77
2023/08/22 08:56:22;;;;;;;3.97;2.10;;;;;;;;;;4997007;28;20272;-77
2023/08/22 08:58:48;;;;;;;5.00;2.55;;;;;;;;;;4996837;28;20280;-77
2023/08/22 09:01:15;;;;;;;7.65;2.85;;;;;;;;;;5013452;28;20177;-77
2023/08/22 09:03:41;;;;;;;9.48;2.50;;;;;;;;;;5012985;28;20217;-77
2023/08/22 09:06:07;;;;;;;6.50;2.97;;;;;;;;;;4997069;28;20204;-77
2023/08/22 09:08:33;;;;;;;5.30;2.45;;;;;;;;;;5013212;28;20181;-77
2023/08/22 09:10:59;;;;;;;4.82;3.03;;;;;;;;;;4996860;28;20209;-79
2023/08/22 09:13:26;;;;;;;5.18;2.90;;;;;;;;;;4996851;28;20185;-80
2023/08/22 09:15:52;;;;;;;5.75;2.80;;;;;;;;;;5013151;28;20177;-80
2023/08/22 09:18:18;;;;;;;5.70;3.10;;;;;;;;;;4996657;28;20177;-80
2023/08/22 09:20:45;;;;;;;4.55;2.90;;;;;;;;;;5012978;28;20188;-80
2023/08/22 09:23:28;;;;;;;7.00;2.53;;;;;;;;;;4996966;28;20239;-80
2023/08/22 09:25:54;;;;;;;5.60;2.50;;;;;;;;;;4996638;28;20177;-80
2023/08/22 09:28:20;;;;;;;5.72;2.33;;;;;;;;;;4996479;28;20235;-77
2023/08/22 09:30:48;;;;;;;7.65;3.90;;;;;;;;;;5014156;28;20288;-77
2023/08/22 09:33:14;;;;;;;4.68;3.20;;;;;;;;;;4996486;28;20177;-77
2023/08/22 09:35:40;;;;;;;7.07;3.70;;;;;;;;;;4996618;28;20261;-77
2023/08/22 09:38:07;;;;;;;6.28;3.70;;;;;;;;;;4996075;28;20430;-77
2023/08/22 09:40:33;;;;;;;7.25;3.40;;;;;;;;;;5012061;28;20542;-77
2023/08/22 09:43:00;;;;;;;5.68;3.05;;;;;;;;;;4995749;28;20450;-77
2023/08/22 09:45:28;;;;;;;6.20;2.95;;;;;;;;;;5011899;28;20411;-80
2023/08/22 09:47:57;;;;;;;7.63;2.80;;;;;;;;;;4995705;28;20411;-80
2023/08/22 09:50:25;;;;;;;4.57;2.28;;;;;;;;;;5012474;28;20237;-80
2023/08/22 09:52:52;;;;;;;6.75;2.00;;;;;;;;;;5012660;28;20260;-80
2023/08/22 09:55:18;;;;;;;6.45;2.40;;;;;;;;;;5014589;28;20192;-80
2023/08/22 09:57:44;;;;;;;5.45;2.42;;;;;;;;;;5000250;28;20181;-80
2023/08/22 10:00:11;;;;;;;5.53;2.60;;;;;;;;;;4999342;28;20411;-80
2023/08/22 10:02:37;;;;;;;5.57;3.20;;;;;;;;;;5016140;28;20456;-77
2023/08/22 10:05:03;;;;;;;7.30;3.70;;;;;;;;;;4999412;28;20415;-77
2023/08/22 10:07:29;;;;;;;7.68;3.80;;;;;;;;;;5015521;28;20410;-77
2023/08/22 10:09:55;;;;;;;9.73;4.20;;;;;;;;;;4999818;28;20224;-77
2023/08/22 10:12:22;;;;;;;6.82;3.92;;;;;;;;;;5016351;28;20173;-77
2023/08/22 10:14:56;;;;;;;7.50;3.67;;;;;;;;;;5015374;28;20439;-77
2023/08/22 10:17:25;;;;;;;8.32;3.50;;;;;;;;;;5016306;28;20399;-77
2023/08/22 10:19:51;;;;;;;7.10;3.25;;;;;;;;;;5015099;28;20418;-78
2023/08/22 10:22:17;;;;;;;5.78;3.70;;;;;;;;;;4998957;28;20430;-77
2023/08/22 10:24:48;;;;;;;7.22;3.45;;;;;;;;;;5015201;28;20418;-78
2023/08/22 10:27:16;;;;;;;6.03;3.10;;;;;;;;;;5015067;28;20443;-78
2023/08/22 10:29:46;;;;;;;6.30;2.70;;;;;;;;;;5015031;28;20490;-78
2023/08/22 10:32:12;;;;;;;5.90;2.90;;;;;;;;;;4998972;28;20415;-78
2023/08/22 10:34:38;;;;;;;7.00;2.60;;;;;;;;;;5015909;28;20506;-83
2023/08/22 10:37:04;;;;;;;6.13;2.30;;;;;;;;;;5015063;28;20413;-83
2023/08/22 10:39:40;;;;;;;3.63;1.97;;;;;;;;;;4998577;28;20407;-78
2023/08/22 10:42:06;;;;;;;6.90;2.60;;;;;;;;;;5014799;28;20400;-78
2023/08/22 10:44:36;;;;;;;3.78;2.10;;;;;;;;;;5014733;28;20442;-78
2023/08/22 10:47:21;;;;;;;6.47;2.20;;;;;;;;;;5014782;28;20416;-78
2023/08/22 10:49:51;;;;;;;6.07;2.20;;;;;;;;;;5015676;28;20427;-77
2023/08/22 10:52:18;;;;;;;6.33;1.93;;;;;;;;;;5014779;28;20410;-78
2023/08/22 10:55:03;;;;;;;4.40;2.00;;;;;;;;;;5014655;28;20482;-78
2023/08/22 10:57:29;;;;;;;4.93;2.30;;;;;;;;;;5014179;28;20411;-78
2023/08/22 11:00:11;;;;;;;3.83;2.00;;;;;;;;;;5014633;28;20417;-78
2023/08/22 11:02:38;;;;;;;5.15;2.20;;;;;;;;;;5015341;28;20486;-78
2023/08/22 11:05:12;;;;;;;6.10;2.13;;;;;;;;;;5014130;28;20441;-78
2023/08/22 11:07:42;;;;;;;3.23;2.07;;;;;;;;;;5013365;28;20442;-78
2023/08/22 11:10:09;;;;;;;3.35;2.17;;;;;;;;;;5014164;28;20513;-80
2023/08/22 11:12:35;;;;;;;4.75;2.30;;;;;;;;;;5015505;28;20439;-80
2023/08/22 11:15:01;;;;;;;3.75;2.33;;;;;;;;;;4998176;28;20443;-80
2023/08/22 11:17:27;;;;;;;7.65;2.30;;;;;;;;;;4998680;28;20370;-80
2023/08/22 11:19:54;;;;;;;4.45;1.98;;;;;;;;;;4997714;28;20425;-80
2023/08/22 11:22:20;;;;;;;4.82;2.20;;;;;;;;;;5014102;28;20415;-80
2023/08/22 11:24:48;;;;;;;4.25;2.25;;;;;;;;;;5014692;28;20513;-81
2023/08/22 11:27:14;;;;;;;4.50;2.07;;;;;;;;;;5014871;28;20431;-80
2023/08/22 11:29:46;;;;;;;2.97;1.70;;;;;;;;;;4997950;28;20403;-80
2023/08/22 11:32:21;;;;;;;3.50;1.80;;;;;;;;;;5014187;28;20408;-81
2023/08/22 11:34:52;;;;;;;3.58;1.80;;;;;;;;;;5013889;28;20509;-80
2023/08/22 11:37:19;;;;;;;3.22;1.80;;;;;;;;;;5013996;28;20426;-80
2023/08/22 11:39:52;;;;;;;3.97;1.80;;;;;;;;;;5013511;28;20404;-80
2023/08/22 11:42:18;;;;;;;3.33;1.73;;;;;;;;;;5014213;28;20470;-78
2023/08/22 11:44:53;;;;;;;4.45;1.50;;;;;;;;;;5013503;28;20403;-78
2023/08/22 11:47:20;;;;;;;3.05;1.50;;;;;;;;;;5013712;28;20404;-78
2023/08/22 11:49:50;;;;;;;3.25;1.40;;;;;;;;;;5013444;28;20538;-78
2023/08/22 11:52:16;;;;;;;2.97;1.30;;;;;;;;;;5013949;28;20410;-78
2023/08/22 11:54:43;;;;;;;2.88;1.40;;;;;;;;;;4997474;28;20438;-78
2023/08/22 11:57:09;;;;;;;2.47;1.35;;;;;;;;;;4997835;28;20411;-78
2023/08/22 11:59:35;;;;;;;2.92;1.50;;;;;;;;;;4997105;28;20463;-83
2023/08/22 12:02:01;;;;;;;2.47;1.25;;;;;;;;;;5013575;28;20419;-83
2023/08/22 12:04:40;;;;;;;4.15;1.30;;;;;;;;;;5013361;28;20410;-83
2023/08/22 12:07:06;;;;;;;2.45;1.30;;;;;;;;;;5013191;28;20414;-83
2023/08/22 12:09:32;;;;;;;2.78;1.45;;;;;;;;;;5013673;28;20399;-80
2023/08/22 12:12:15;;;;;;;4.25;1.67;;;;;;;;;;4997672;28;20416;-80
2023/08/22 12:14:41;;;;;;;2.80;1.30;;;;;;;;;;5013180;28;20413;-78
2023/08/22 12:17:07;;;;;;;4.43;1.60;;;;;;;;;;4997050;28;20478;-77
2023/08/22 12:19:33;;;;;;;3.70;1.60;;;;;;;;;;4996783;28;20485;-77
2023/08/22 12:22:00;;;;;;;2.88;1.50;;;;;;;;;;5013945;28;20173;-77
2023/08/22 12:24:26;;;;;;;6.88;1.50;;;;;;;;;;5014028;28;20177;-77
2023/08/22 12:26:52;;;;;;;3.83;1.58;;;;;;;;;;4997178;28;20260;-77
2023/08/22 12:29:18;;;;;;;5.45;1.80;;;;;;;;;;5013486;28;20177;-77
2023/08/22 12:31:44;;;;;;;2.80;1.60;;;;;;;;;;4996703;28;20439;-77
2023/08/22 12:34:10;;;;;;;4.05;2.03;;;;;;;;;;4996351;28;20438;-77
2023/08/22 12:36:36;;;;;;;4.72;2.53;;;;;;;;;;4996608;28;20419;-77
2023/08/22 12:39:02;;;;;;;4.47;2.30;;;;;;;;;;4996589;28;20407;-77
2023/08/22 12:41:28;;;;;;;6.22;2.53;;;;;;;;;;4996422;28;20419;-77
2023/08/22 12:43:54;;;;;;;6.50;2.70;;;;;;;;;;4996242;28;20415;-78
2023/08/22 12:46:20;;;;;;;6.07;3.00;;;;;;;;;;4996073;28;20407;-78
2023/08/22 12:48:46;;;;;;;5.50;2.95;;;;;;;;;;5012587;28;20414;-80
2023/08/22 12:51:12;;;;;;;5.35;2.45;;;;;;;;;;5013488;28;20236;-80
2023/08/22 12:53:38;;;;;;;6.25;2.80;;;;;;;;;;4996378;28;20462;-80
2023/08/22 12:56:04;;;;;;;6.55;3.00;;;;;;;;;;5012511;28;20409;-80
2023/08/22 12:58:32;;;;;;;6.47;2.97;;;;;;;;;;4996258;28;20419;-80
2023/08/22 13:00:58;;;;;;;4.05;2.70;;;;;;;;;;5013215;28;20180;-81
2023/08/22 13:03:24;;;;;;;6.18;2.97;;;;;;;;;;4996119;28;20415;-81
2023/08/22 13:05:50;;;;;;;5.70;2.83;;;;;;;;;;4996982;28;20181;-78
2023/08/22 13:08:16;;;;;;;8.98;3.60;;;;;;;;;;4996759;28;20181;-78
2023/08/22 13:10:42;;;;;;;8.50;3.35;;;;;;;;;;5012286;28;20471;-78
2023/08/22 13:13:08;;;;;;;4.88;3.00;;;;;;;;;;4996824;28;20305;-80
2023/08/22 13:15:34;;;;;;;4.40;2.60;;;;;;;;;;4996784;28;20181;-81
2023/08/22 13:18:00;;;;;;;4.93;2.90;;;;;;;;;;4996439;28;20185;-80
2023/08/22 13:20:26;;;;;;;5.00;2.50;;;;;;;;;;5012965;28;20188;-81
2023/08/22 13:22:52;;;;;;;5.40;3.03;;;;;;;;;;4996320;28;20408;-78
2023/08/22 13:25:18;;;;;;;4.82;2.88;;;;;;;;;;4996774;28;20397;-79
2023/08/22 13:27:44;;;;;;;4.70;2.90;;;;;;;;;;4996338;28;20473;-79
2023/08/22 13:30:10;;;;;;;5.68;3.25;;;;;;;;;;5013700;28;20431;-78
2023/08/22 13:32:36;;;;;;;5.57;3.40;;;;;;;;;;5016908;28;20200;-79
2023/08/22 13:35:03;;;;;;;6.82;2.90;;;;;;;;;;5017093;28;20245;-78
2023/08/22 13:37:32;;;;;;;7.82;3.60;;;;;;;;;;5016386;28;20406;-78
2023/08/22 13:40:00;;;;;;;6.95;3.38;;;;;;;;;;5016648;28;20216;-78
2023/08/22 13:42:26;;;;;;;5.60;3.00;;;;;;;;;;5000531;28;20177;-78
2023/08/22 13:44:52;;;;;;;6.10;2.65;;;;;;;;;;5016736;28;20177;-78
2023/08/22 13:47:18;;;;;;;6.65;2.40;;;;;;;;;;5017219;28;20426;-79
2023/08/22 13:49:44;;;;;;;4.00;2.00;;;;;;;;;;5017630;28;20199;-78
2023/08/22 13:52:10;;;;;;;4.22;1.77;;;;;;;;;;5000643;28;20181;-78
2023/08/22 13:54:36;;;;;;;8.80;2.13;;;;;;;;;;5000391;28;20184;-77
2023/08/22 13:57:03;;;;;;;2.83;1.88;;;;;;;;;;5016640;28;20228;-78
2023/08/22 13:59:29;;;;;;;3.85;1.80;;;;;;;;;;5000299;28;20223;-78
2023/08/22 14:01:56;;;;;;;5.65;1.90;;;;;;;;;;5016456;28;20169;-78
2023/08/22 14:04:21;;;;;;;4.35;1.85;;;;;;;;;;5016702;28;20225;-78
2023/08/22 14:06:48;;;;;;;5.03;1.60;;;;;;;;;;4999504;28;20439;-77
2023/08/22 14:09:14;;;;;;;4.05;1.92;;;;;;;;;;5016366;28;20266;-78
2023/08/22 14:11:40;;;;;;;4.38;1.83;;;;;;;;;;5000112;28;20298;-78
2023/08/22 14:14:06;;;;;;;4.75;2.45;;;;;;;;;;5015439;28;20494;-77
2023/08/22 14:16:32;;;;;;;4.07;2.05;;;;;;;;;;5000072;28;20407;-77
2023/08/22 14:18:58;;;;;;;6.13;2.33;;;;;;;;;;5016063;28;20426;-78
2023/08/22 14:21:24;;;;;;;4.60;2.53;;;;;;;;;;4999151;28;20411;-77
2023/08/22 14:23:50;;;;;;;4.88;2.30;;;;;;;;;;5016127;28;20212;-78
2023/08/22 14:26:16;;;;;;;5.35;2.50;;;;;;;;;;4998675;28;20505;-77
2023/08/22 14:28:42;;;;;;;5.40;2.30;;;;;;;;;;5014973;28;20442;-83
2023/08/22 14:31:08;;;;;;;5.07;2.42;;;;;;;;;;4999375;28;20213;-83
2023/08/22 14:33:34;;;;;;;5.55;2.60;;;;;;;;;;4999788;28;20188;-83
2023/08/22 14:36:07;;;;;;;5.75;2.60;;;;;;;;;;4998527;28;20414;-84
2023/08/22 14:38:34;;;;;;;5.20;2.28;;;;;;;;;;5015809;28;20414;-84
2023/08/22 14:41:00;;;;;;;5.65;2.25;;;;;;;;;;5017019;28;20170;-84
2023/08/22 14:43:27;;;;;;;3.85;1.75;;;;;;;;;;5016814;28;20199;-78